METAR Data
IDs: Format: Raw Decoded Include TAF

Data at: 1638 UTC 24 Aug 2019

PAHO 241553Z 05003KT 10SM CLR 08/07 A2967 RMK AO2 SLP046 T00780072
PAHO 241453Z 05003KT 9SM CLR 07/07 A2965 RMK AO2 SLP041 T00670067 53010
PAHO 241353Z 08005KT 10SM CLR 06/06 A2964 RMK AO2 SLP037 T00610061
PAHO 241253Z AUTO 02004KT 10SM CLR 07/06 A2963 RMK AO2 SLP034 T00720061 TSNO
PAHO 241153Z AUTO 05004KT 10SM CLR 08/07 A2962 RMK AO2 SLP031 T00780067 10117 20072 51008 TSNO
PAHO 241053Z AUTO 03003KT 10SM CLR 07/07 A2962 RMK AO2 SLP030 T00720067 TSNO
PAHO 240953Z AUTO 00000KT 10SM CLR 08/07 A2961 RMK AO2 SLP026 T00830072 TSNO
PAHO 240853Z AUTO 01003KT 10SM CLR 09/07 A2960 RMK AO2 SLP023 T00890072 401670044 51011 TSNO
PAHO 240753Z AUTO 03004KT 9SM CLR 09/07 A2959 RMK AO2 SLP019 T00890072 TSNO
PAHO 240653Z AUTO 03003KT 9SM CLR 11/08 A2958 RMK AO2 SLP016 T01060083 TSNO
PAHO 240553Z AUTO 05003KT 6SM BR CLR 12/09 A2957 RMK AO2 SLP012 T01170094 10167 20117 53005 TSNO
PAHO 240453Z 25007KT 9SM CLR 14/09 A2955 RMK AO2 SLP007 T01440094
PAHO 240353Z 24007KT 8SM CLR 16/07 A2954 RMK AO2 SLP004 VCHZFU T01560072
PAHO 240253Z 24010G15KT 8SM CLR 17/07 A2955 RMK AO2 SLP006 VCHZFU T01670072 55000
PAHO 240153Z 24015G20KT 6SM FU CLR 16/06 A2955 RMK AO2 SLP005 T01610061
PAHO 240053Z COR 25013KT 6SM FU SCT035 15/09 A2955 RMK AO2 SLP006 T01500089
PAHO 232353Z 24013KT 7SM SCT035 16/09 A2955 RMK AO2 SLP006 VCHZFU T01610089 10167 20117 58005
PAHO 232253Z 25008KT 7SM FEW035 17/10 A2956 RMK AO2 SLP008 VCHZFU T01670100 $
PAHO 232153Z 24006KT 8SM CLR 16/10 A2956 RMK AO2 SLP011 VCHZFU T01560100 $
PAHO 232053Z 21006KT 8SM FU CLR 15/09 A2956 RMK AO2 SLP011 T01500094 58003 $
PAHO 231953Z 13005KT 6SM FU CLR 14/07 A2957 RMK AO2 SLP013 T01440072 $
PAHO 231853Z 11004KT 5SM FU CLR 13/08 A2957 RMK AO2 SLP013 T01330078 $
PAHO 231753Z 08005KT 5SM HZ FU CLR 12/07 A2957 RMK AO2 SLP014 T01170072 10117 20044 58003 $
PAHO 231653Z 07003KT 5SM HZ FU CLR 10/07 A2958 RMK AO2 SLP016 T01000067 $
PAHO 231553Z 06003KT 4SM BR FU CLR 06/05 A2958 RMK AO2 SLP016 T00610050 $
PAHO 231453Z 07003KT 4SM BR FU CLR 05/04 A2958 RMK AO2 SLP017 T00500039 56002 $
PAHO 231353Z 05004KT 5SM BR FU CLR 06/04 A2958 RMK AO2 SLP017 T00610044 $
PAHO 231253Z AUTO 05004KT 4SM BR CLR 07/05 A2958 RMK AO2 SLP016 T00670050 TSNO $
PAHO 231153Z AUTO 05004KT 4SM BR CLR 06/05 A2959 RMK AO2 SLP019 T00610050 10122 20061 58010 TSNO $
PAHO 231053Z AUTO 05003KT 4SM BR CLR 07/06 A2960 RMK AO2 SLP022 T00670056 TSNO $
PAHO 230953Z AUTO 04003KT 5SM BR CLR 07/06 A2961 RMK AO2 SLP027 T00670056 TSNO $
PAHO 230853Z AUTO 00000KT 4SM BR CLR 08/06 A2962 RMK AO2 SLP029 T00780056 401720039 50003 TSNO $
PAHO 230753Z AUTO 00000KT 5SM BR CLR 10/09 A2962 RMK AO2 SLP030 T01000089 TSNO $
PAHO 230710Z AUTO 22006KT 4SM BR SCT030 11/09 A2961 RMK AO2 T01060094 TSNO $
PAHO 230653Z AUTO 23007KT 3SM BR OVC029 11/08 A2961 RMK AO2 SLP028 T01060083 TSNO $
PAHO 230625Z AUTO 25004KT 3SM HZ OVC027 11/07 A2961 RMK AO2 T01110067 TSNO $
PAHO 230615Z AUTO 26005KT 2 1/2SM HZ BKN027 OVC065 12/07 A2961 RMK AO2 T01170067 TSNO $
PAHO 230604Z AUTO 26008KT 2 1/2SM HZ SCT025 OVC065 12/07 A2961 RMK AO2 T01170072 TSNO $
PAHO 230553Z AUTO 26008KT 1 1/2SM HZ FEW023 OVC065 12/07 A2961 RMK AO2 SLP026 T01220072 10172 20122 53007 TSNO $
PAHO 230535Z AUTO 26009KT 1 1/2SM HZ SCT028 12/08 A2960 RMK AO2 T01220078 TSNO $
PAHO 230453Z 25009G15KT 2SM FU SCT040 13/09 A2959 RMK AO2 SLP021 BKN000 FU T01280089 $